Aviation Digital Data Service (ADDS)

Output produced by METARs form (1818 UTC 21 September 2019)
found at http://aviationweather.gov/metar/data/
 
KBPT 211737Z 2118/2218 12011KT P6SM SCT025 BKN050 
     FM220200 13010KT P6SM SCT250 
     FM221400 13011KT P6SM FEW025